Terminal Aerodrome Forecast
Issued by NWS

Home | Current Version | Previous Version | Text Only | Print | Product List | Glossary On
Versions: 1 2 3 4 5 6 7 8 9 10 11 12 13 14 15 16
000
FTUS43 KOAX 030520
TAFSNY
TAF
KSNY 030520Z 0306/0406 10007KT P6SM SCT015
     FM031000 35008KT 2SM BR BKN004 BKN015
     FM031800 02012KT P6SM SCT004 BKN015
     FM032100 05012KT P6SM VCTS SCT015 BKN030CB
     FM040100 10015KT 5SM -SHRA VCTS SCT005 OVC015CB
     FM040300 10008KT 3SM -RA BR BKN005 OVC015=

USA.gov is the U.S. government's official web portal to all federal, state and local government web resources and services.